sensor_id;sensor_type;location;lat;lon;timestamp;P1;durP1;ratioP1;P2;durP2;ratioP2
59788;SDS011;47353;51.614;5.530;2023-05-14T00:01:41;11.18;;;9.98;;
59788;SDS011;47353;51.614;5.530;2023-05-14T00:04:06;10.70;;;9.70;;
59788;SDS011;47353;51.614;5.530;2023-05-14T00:06:31;13.45;;;10.07;;
59788;SDS011;47353;51.614;5.530;2023-05-14T00:08:57;13.27;;;10.48;;
59788;SDS011;47353;51.614;5.530;2023-05-14T00:11:22;12.30;;;10.38;;
59788;SDS011;47353;51.614;5.530;2023-05-14T00:13:48;11.35;;;10.25;;
59788;SDS011;47353;51.614;5.530;2023-05-14T00:16:14;12.82;;;10.57;;
59788;SDS011;47353;51.614;5.530;2023-05-14T00:18:40;14.43;;;10.65;;
59788;SDS011;47353;51.614;5.530;2023-05-14T00:21:05;14.27;;;10.43;;
59788;SDS011;47353;51.614;5.530;2023-05-14T00:23:31;15.13;;;10.60;;
59788;SDS011;47353;51.614;5.530;2023-05-14T00:25:56;15.18;;;10.93;;
59788;SDS011;47353;51.614;5.530;2023-05-14T00:28:22;12.48;;;11.05;;
59788;SDS011;47353;51.614;5.530;2023-05-14T00:30:47;12.77;;;11.40;;
59788;SDS011;47353;51.614;5.530;2023-05-14T00:33:12;13.30;;;10.95;;
59788;SDS011;47353;51.614;5.530;2023-05-14T00:35:38;13.07;;;11.65;;
59788;SDS011;47353;51.614;5.530;2023-05-14T00:38:03;13.60;;;12.20;;
59788;SDS011;47353;51.614;5.530;2023-05-14T00:40:29;16.08;;;11.95;;
59788;SDS011;47353;51.614;5.530;2023-05-14T00:42:55;14.10;;;12.05;;
59788;SDS011;47353;51.614;5.530;2023-05-14T00:45:21;13.77;;;11.57;;
59788;SDS011;47353;51.614;5.530;2023-05-14T00:47:47;16.35;;;12.30;;
59788;SDS011;47353;51.614;5.530;2023-05-14T00:50:12;15.27;;;12.40;;
59788;SDS011;47353;51.614;5.530;2023-05-14T00:52:40;17.25;;;12.77;;
59788;SDS011;47353;51.614;5.530;2023-05-14T00:55:06;15.77;;;12.70;;
59788;SDS011;47353;51.614;5.530;2023-05-14T00:57:32;15.05;;;13.40;;
59788;SDS011;47353;51.614;5.530;2023-05-14T01:00:00;15.10;;;13.15;;
59788;SDS011;47353;51.614;5.530;2023-05-14T01:02:26;17.40;;;13.32;;
59788;SDS011;47353;51.614;5.530;2023-05-14T01:04:51;16.05;;;13.45;;
59788;SDS011;47353;51.614;5.530;2023-05-14T01:10:41;15.70;;;14.10;;
59788;SDS011;47353;51.614;5.530;2023-05-14T01:15:48;15.02;;;13.50;;
59788;SDS011;47353;51.614;5.530;2023-05-14T01:18:15;18.83;;;14.13;;
59788;SDS011;47353;51.614;5.530;2023-05-14T01:20:43;18.80;;;14.07;;
59788;SDS011;47353;51.614;5.530;2023-05-14T01:23:09;16.50;;;14.38;;
59788;SDS011;47353;51.614;5.530;2023-05-14T01:25:35;16.08;;;14.57;;
59788;SDS011;47353;51.614;5.530;2023-05-14T01:30:52;17.35;;;14.73;;
59788;SDS011;47353;51.614;5.530;2023-05-14T01:33:32;16.88;;;15.07;;
59788;SDS011;47353;51.614;5.530;2023-05-14T01:35:59;17.08;;;14.98;;
59788;SDS011;47353;51.614;5.530;2023-05-14T01:38:25;17.02;;;15.15;;
59788;SDS011;47353;51.614;5.530;2023-05-14T01:40:55;18.77;;;16.23;;
59788;SDS011;47353;51.614;5.530;2023-05-14T01:43:21;18.02;;;15.75;;
59788;SDS011;47353;51.614;5.530;2023-05-14T01:45:47;19.33;;;15.98;;
59788;SDS011;47353;51.614;5.530;2023-05-14T01:48:13;21.77;;;16.52;;
59788;SDS011;47353;51.614;5.530;2023-05-14T01:50:39;20.33;;;16.05;;
59788;SDS011;47353;51.614;5.530;2023-05-14T01:53:05;18.05;;;16.10;;
59788;SDS011;47353;51.614;5.530;2023-05-14T01:55:30;21.58;;;16.77;;
59788;SDS011;47353;51.614;5.530;2023-05-14T01:57:56;18.80;;;16.13;;
59788;SDS011;47353;51.614;5.530;2023-05-14T02:00:22;19.90;;;17.02;;
59788;SDS011;47353;51.614;5.530;2023-05-14T02:02:49;20.08;;;16.70;;
59788;SDS011;47353;51.614;5.530;2023-05-14T02:05:14;20.60;;;17.23;;
59788;SDS011;47353;51.614;5.530;2023-05-14T02:07:39;21.27;;;16.60;;
59788;SDS011;47353;51.614;5.530;2023-05-14T02:10:05;22.85;;;16.88;;
59788;SDS011;47353;51.614;5.530;2023-05-14T02:12:31;19.15;;;17.15;;
59788;SDS011;47353;51.614;5.530;2023-05-14T02:14:56;20.65;;;16.90;;
59788;SDS011;47353;51.614;5.530;2023-05-14T02:17:23;21.25;;;17.38;;
59788;SDS011;47353;51.614;5.530;2023-05-14T02:19:50;22.77;;;17.08;;
59788;SDS011;47353;51.614;5.530;2023-05-14T02:22:15;20.92;;;17.55;;
59788;SDS011;47353;51.614;5.530;2023-05-14T02:24:40;21.80;;;17.63;;
59788;SDS011;47353;51.614;5.530;2023-05-14T02:27:06;22.17;;;18.10;;
59788;SDS011;47353;51.614;5.530;2023-05-14T02:29:32;21.13;;;17.75;;
59788;SDS011;47353;51.614;5.530;2023-05-14T02:31:57;20.63;;;17.75;;
59788;SDS011;47353;51.614;5.530;2023-05-14T02:34:23;21.83;;;17.45;;
59788;SDS011;47353;51.614;5.530;2023-05-14T02:36:48;24.35;;;18.70;;
59788;SDS011;47353;51.614;5.530;2023-05-14T02:39:13;21.45;;;17.73;;
59788;SDS011;47353;51.614;5.530;2023-05-14T02:41:39;20.88;;;18.55;;
59788;SDS011;47353;51.614;5.530;2023-05-14T02:44:04;24.65;;;18.42;;
59788;SDS011;47353;51.614;5.530;2023-05-14T02:46:30;22.52;;;18.88;;
59788;SDS011;47353;51.614;5.530;2023-05-14T02:48:56;21.80;;;19.15;;
59788;SDS011;47353;51.614;5.530;2023-05-14T02:51:21;22.23;;;19.42;;
59788;SDS011;47353;51.614;5.530;2023-05-14T02:53:46;24.58;;;19.63;;
59788;SDS011;47353;51.614;5.530;2023-05-14T02:56:12;25.98;;;19.50;;
59788;SDS011;47353;51.614;5.530;2023-05-14T02:58:37;24.92;;;20.15;;
59788;SDS011;47353;51.614;5.530;2023-05-14T03:01:03;23.08;;;19.45;;
59788;SDS011;47353;51.614;5.530;2023-05-14T03:03:28;21.67;;;19.13;;
59788;SDS011;47353;51.614;5.530;2023-05-14T03:05:54;22.88;;;19.05;;
59788;SDS011;47353;51.614;5.530;2023-05-14T03:08:20;26.35;;;19.95;;
59788;SDS011;47353;51.614;5.530;2023-05-14T03:10:45;23.00;;;20.50;;
59788;SDS011;47353;51.614;5.530;2023-05-14T03:13:10;24.08;;;20.23;;
59788;SDS011;47353;51.614;5.530;2023-05-14T03:15:36;25.48;;;21.40;;
59788;SDS011;47353;51.614;5.530;2023-05-14T03:18:01;26.92;;;20.77;;
59788;SDS011;47353;51.614;5.530;2023-05-14T03:20:27;25.77;;;21.30;;
59788;SDS011;47353;51.614;5.530;2023-05-14T03:22:52;26.83;;;21.95;;
59788;SDS011;47353;51.614;5.530;2023-05-14T03:25:18;25.23;;;21.70;;
59788;SDS011;47353;51.614;5.530;2023-05-14T03:27:44;26.27;;;22.52;;
59788;SDS011;47353;51.614;5.530;2023-05-14T03:30:10;25.70;;;22.15;;
59788;SDS011;47353;51.614;5.530;2023-05-14T03:32:35;26.50;;;22.83;;
59788;SDS011;47353;51.614;5.530;2023-05-14T03:35:01;27.38;;;22.85;;
59788;SDS011;47353;51.614;5.530;2023-05-14T03:37:27;28.77;;;23.02;;
59788;SDS011;47353;51.614;5.530;2023-05-14T03:39:52;32.45;;;23.65;;
59788;SDS011;47353;51.614;5.530;2023-05-14T03:42:18;28.17;;;23.48;;
59788;SDS011;47353;51.614;5.530;2023-05-14T03:44:43;30.42;;;24.23;;
59788;SDS011;47353;51.614;5.530;2023-05-14T03:47:09;27.67;;;23.33;;
59788;SDS011;47353;51.614;5.530;2023-05-14T03:49:34;29.42;;;24.40;;
59788;SDS011;47353;51.614;5.530;2023-05-14T03:52:00;34.28;;;25.00;;
59788;SDS011;47353;51.614;5.530;2023-05-14T03:54:25;30.70;;;24.90;;
59788;SDS011;47353;51.614;5.530;2023-05-14T03:56:50;30.45;;;24.90;;
59788;SDS011;47353;51.614;5.530;2023-05-14T03:59:16;38.38;;;26.00;;
59788;SDS011;47353;51.614;5.530;2023-05-14T04:01:42;30.17;;;24.80;;
59788;SDS011;47353;51.614;5.530;2023-05-14T04:04:08;31.90;;;24.25;;
59788;SDS011;47353;51.614;5.530;2023-05-14T04:06:33;31.15;;;24.63;;
59788;SDS011;47353;51.614;5.530;2023-05-14T04:08:58;33.95;;;24.98;;
59788;SDS011;47353;51.614;5.530;2023-05-14T04:11:24;32.80;;;24.33;;
59788;SDS011;47353;51.614;5.530;2023-05-14T04:13:49;32.58;;;24.40;;
59788;SDS011;47353;51.614;5.530;2023-05-14T04:16:15;32.30;;;24.85;;
59788;SDS011;47353;51.614;5.530;2023-05-14T04:18:40;32.33;;;25.20;;
59788;SDS011;47353;51.614;5.530;2023-05-14T04:21:05;32.13;;;25.10;;
59788;SDS011;47353;51.614;5.530;2023-05-14T04:23:31;40.72;;;25.90;;
59788;SDS011;47353;51.614;5.530;2023-05-14T04:25:56;36.58;;;25.13;;
59788;SDS011;47353;51.614;5.530;2023-05-14T04:28:22;34.60;;;25.15;;
59788;SDS011;47353;51.614;5.530;2023-05-14T04:30:48;31.23;;;24.70;;
59788;SDS011;47353;51.614;5.530;2023-05-14T04:33:13;34.80;;;25.60;;
59788;SDS011;47353;51.614;5.530;2023-05-14T04:35:39;33.83;;;25.25;;
59788;SDS011;47353;51.614;5.530;2023-05-14T04:38:05;36.17;;;25.60;;
59788;SDS011;47353;51.614;5.530;2023-05-14T04:40:30;30.20;;;24.30;;
59788;SDS011;47353;51.614;5.530;2023-05-14T04:42:56;29.50;;;24.60;;
59788;SDS011;47353;51.614;5.530;2023-05-14T04:45:21;31.55;;;25.05;;
59788;SDS011;47353;51.614;5.530;2023-05-14T04:47:47;34.40;;;25.45;;
59788;SDS011;47353;51.614;5.530;2023-05-14T04:50:12;31.50;;;24.55;;
59788;SDS011;47353;51.614;5.530;2023-05-14T04:52:38;34.92;;;24.40;;
59788;SDS011;47353;51.614;5.530;2023-05-14T04:55:03;31.58;;;24.05;;
59788;SDS011;47353;51.614;5.530;2023-05-14T04:57:29;31.85;;;24.30;;
59788;SDS011;47353;51.614;5.530;2023-05-14T04:59:55;34.70;;;24.20;;
59788;SDS011;47353;51.614;5.530;2023-05-14T05:02:20;33.40;;;25.42;;
59788;SDS011;47353;51.614;5.530;2023-05-14T05:04:46;35.08;;;23.92;;
59788;SDS011;47353;51.614;5.530;2023-05-14T05:07:11;32.17;;;23.48;;
59788;SDS011;47353;51.614;5.530;2023-05-14T05:09:37;28.75;;;22.58;;
59788;SDS011;47353;51.614;5.530;2023-05-14T05:12:03;32.42;;;23.13;;
59788;SDS011;47353;51.614;5.530;2023-05-14T05:14:29;31.73;;;24.23;;
59788;SDS011;47353;51.614;5.530;2023-05-14T05:16:54;32.47;;;23.33;;
59788;SDS011;47353;51.614;5.530;2023-05-14T05:19:19;34.42;;;22.85;;
59788;SDS011;47353;51.614;5.530;2023-05-14T05:21:45;32.38;;;23.50;;
59788;SDS011;47353;51.614;5.530;2023-05-14T05:24:10;34.28;;;23.55;;
59788;SDS011;47353;51.614;5.530;2023-05-14T05:26:37;32.17;;;23.80;;
59788;SDS011;47353;51.614;5.530;2023-05-14T05:29:03;37.17;;;23.77;;
59788;SDS011;47353;51.614;5.530;2023-05-14T05:31:29;35.85;;;24.15;;
59788;SDS011;47353;51.614;5.530;2023-05-14T05:33:55;31.90;;;22.95;;
59788;SDS011;47353;51.614;5.530;2023-05-14T05:36:21;32.58;;;23.23;;
59788;SDS011;47353;51.614;5.530;2023-05-14T05:38:46;32.90;;;24.75;;
59788;SDS011;47353;51.614;5.530;2023-05-14T05:41:12;35.08;;;25.65;;
59788;SDS011;47353;51.614;5.530;2023-05-14T05:43:37;33.92;;;24.38;;
59788;SDS011;47353;51.614;5.530;2023-05-14T05:46:03;32.47;;;23.70;;
59788;SDS011;47353;51.614;5.530;2023-05-14T05:48:28;31.30;;;24.35;;
59788;SDS011;47353;51.614;5.530;2023-05-14T05:50:53;31.73;;;24.25;;
59788;SDS011;47353;51.614;5.530;2023-05-14T05:53:19;33.65;;;25.08;;
59788;SDS011;47353;51.614;5.530;2023-05-14T05:55:44;35.40;;;24.92;;
59788;SDS011;47353;51.614;5.530;2023-05-14T05:58:10;32.83;;;25.23;;
59788;SDS011;47353;51.614;5.530;2023-05-14T06:00:35;31.48;;;24.52;;
59788;SDS011;47353;51.614;5.530;2023-05-14T06:03:01;31.70;;;25.17;;
59788;SDS011;47353;51.614;5.530;2023-05-14T06:05:26;32.85;;;24.75;;
59788;SDS011;47353;51.614;5.530;2023-05-14T06:07:52;34.38;;;23.73;;
59788;SDS011;47353;51.614;5.530;2023-05-14T06:10:17;33.40;;;24.20;;
59788;SDS011;47353;51.614;5.530;2023-05-14T06:12:43;34.60;;;24.25;;
59788;SDS011;47353;51.614;5.530;2023-05-14T06:15:09;33.28;;;23.25;;
59788;SDS011;47353;51.614;5.530;2023-05-14T06:17:36;30.75;;;22.73;;
59788;SDS011;47353;51.614;5.530;2023-05-14T06:20:01;34.25;;;24.02;;
59788;SDS011;47353;51.614;5.530;2023-05-14T06:22:29;31.67;;;23.08;;
59788;SDS011;47353;51.614;5.530;2023-05-14T06:24:55;29.48;;;22.02;;
59788;SDS011;47353;51.614;5.530;2023-05-14T06:27:20;27.30;;;21.40;;
59788;SDS011;47353;51.614;5.530;2023-05-14T06:29:45;25.85;;;21.70;;
59788;SDS011;47353;51.614;5.530;2023-05-14T06:32:11;27.00;;;20.73;;
59788;SDS011;47353;51.614;5.530;2023-05-14T06:34:39;26.92;;;20.83;;
59788;SDS011;47353;51.614;5.530;2023-05-14T06:37:05;29.88;;;20.38;;
59788;SDS011;47353;51.614;5.530;2023-05-14T06:39:31;25.73;;;20.15;;
59788;SDS011;47353;51.614;5.530;2023-05-14T06:41:56;28.05;;;19.45;;
59788;SDS011;47353;51.614;5.530;2023-05-14T06:44:21;26.10;;;20.33;;
59788;SDS011;47353;51.614;5.530;2023-05-14T06:46:47;24.65;;;19.27;;
59788;SDS011;47353;51.614;5.530;2023-05-14T06:49:12;27.30;;;19.77;;
59788;SDS011;47353;51.614;5.530;2023-05-14T06:51:38;23.33;;;18.17;;
59788;SDS011;47353;51.614;5.530;2023-05-14T06:54:04;24.67;;;18.70;;
59788;SDS011;47353;51.614;5.530;2023-05-14T06:56:30;22.73;;;17.58;;
59788;SDS011;47353;51.614;5.530;2023-05-14T06:58:55;25.67;;;17.60;;
59788;SDS011;47353;51.614;5.530;2023-05-14T07:01:21;22.65;;;18.10;;
59788;SDS011;47353;51.614;5.530;2023-05-14T07:03:46;23.17;;;18.00;;
59788;SDS011;47353;51.614;5.530;2023-05-14T07:06:11;22.02;;;17.73;;
59788;SDS011;47353;51.614;5.530;2023-05-14T07:08:38;20.65;;;17.08;;
59788;SDS011;47353;51.614;5.530;2023-05-14T07:11:03;23.60;;;18.10;;
59788;SDS011;47353;51.614;5.530;2023-05-14T07:13:28;20.40;;;17.20;;
59788;SDS011;47353;51.614;5.530;2023-05-14T07:15:54;24.20;;;17.27;;
59788;SDS011;47353;51.614;5.530;2023-05-14T07:18:20;23.75;;;16.65;;
59788;SDS011;47353;51.614;5.530;2023-05-14T07:20:47;20.17;;;16.67;;
59788;SDS011;47353;51.614;5.530;2023-05-14T07:23:12;21.23;;;16.30;;
59788;SDS011;47353;51.614;5.530;2023-05-14T07:25:37;21.92;;;16.77;;
59788;SDS011;47353;51.614;5.530;2023-05-14T07:28:03;22.60;;;16.17;;
59788;SDS011;47353;51.614;5.530;2023-05-14T07:30:28;19.65;;;16.23;;
59788;SDS011;47353;51.614;5.530;2023-05-14T07:32:54;19.55;;;15.85;;
59788;SDS011;47353;51.614;5.530;2023-05-14T07:35:19;17.80;;;14.90;;
59788;SDS011;47353;51.614;5.530;2023-05-14T07:37:44;18.05;;;14.75;;
59788;SDS011;47353;51.614;5.530;2023-05-14T07:40:10;19.20;;;14.75;;
59788;SDS011;47353;51.614;5.530;2023-05-14T07:42:36;19.85;;;15.35;;
59788;SDS011;47353;51.614;5.530;2023-05-14T07:45:01;16.77;;;13.32;;
59788;SDS011;47353;51.614;5.530;2023-05-14T07:47:27;15.93;;;14.30;;
59788;SDS011;47353;51.614;5.530;2023-05-14T07:49:54;17.55;;;13.77;;
59788;SDS011;47353;51.614;5.530;2023-05-14T07:52:20;23.33;;;13.63;;
59788;SDS011;47353;51.614;5.530;2023-05-14T07:54:45;16.60;;;13.63;;
59788;SDS011;47353;51.614;5.530;2023-05-14T07:57:11;16.58;;;12.93;;
59788;SDS011;47353;51.614;5.530;2023-05-14T07:59:36;16.00;;;12.45;;
59788;SDS011;47353;51.614;5.530;2023-05-14T08:02:02;17.33;;;12.52;;
59788;SDS011;47353;51.614;5.530;2023-05-14T08:04:27;14.57;;;12.60;;
59788;SDS011;47353;51.614;5.530;2023-05-14T08:06:53;20.35;;;12.85;;
59788;SDS011;47353;51.614;5.530;2023-05-14T08:09:20;16.20;;;11.90;;
59788;SDS011;47353;51.614;5.530;2023-05-14T08:11:45;16.63;;;12.35;;
59788;SDS011;47353;51.614;5.530;2023-05-14T08:14:11;14.60;;;11.90;;
59788;SDS011;47353;51.614;5.530;2023-05-14T08:16:36;13.35;;;10.75;;
59788;SDS011;47353;51.614;5.530;2023-05-14T08:19:02;14.38;;;11.43;;
59788;SDS011;47353;51.614;5.530;2023-05-14T08:21:28;15.07;;;11.27;;
59788;SDS011;47353;51.614;5.530;2023-05-14T08:23:53;12.90;;;11.60;;
59788;SDS011;47353;51.614;5.530;2023-05-14T08:26:18;14.23;;;11.43;;
59788;SDS011;47353;51.614;5.530;2023-05-14T08:28:45;11.57;;;10.38;;
59788;SDS011;47353;51.614;5.530;2023-05-14T08:31:10;12.82;;;11.52;;
59788;SDS011;47353;51.614;5.530;2023-05-14T08:33:38;13.40;;;11.00;;
59788;SDS011;47353;51.614;5.530;2023-05-14T08:36:04;13.50;;;10.77;;
59788;SDS011;47353;51.614;5.530;2023-05-14T08:38:30;14.48;;;10.68;;
59788;SDS011;47353;51.614;5.530;2023-05-14T08:40:56;11.93;;;10.38;;
59788;SDS011;47353;51.614;5.530;2023-05-14T08:43:25;11.75;;;10.65;;
59788;SDS011;47353;51.614;5.530;2023-05-14T08:45:55;13.35;;;10.52;;
59788;SDS011;47353;51.614;5.530;2023-05-14T08:48:25;13.15;;;9.55;;
59788;SDS011;47353;51.614;5.530;2023-05-14T08:50:55;13.10;;;10.48;;
59788;SDS011;47353;51.614;5.530;2023-05-14T08:53:22;13.60;;;9.65;;
59788;SDS011;47353;51.614;5.530;2023-05-14T08:55:47;11.68;;;10.05;;
59788;SDS011;47353;51.614;5.530;2023-05-14T08:58:15;17.30;;;10.23;;
59788;SDS011;47353;51.614;5.530;2023-05-14T09:00:41;11.45;;;9.57;;
59788;SDS011;47353;51.614;5.530;2023-05-14T09:03:06;13.57;;;9.68;;
59788;SDS011;47353;51.614;5.530;2023-05-14T09:05:33;12.88;;;9.05;;
59788;SDS011;47353;51.614;5.530;2023-05-14T09:07:59;11.93;;;10.02;;
59788;SDS011;47353;51.614;5.530;2023-05-14T09:10:24;14.65;;;10.35;;
59788;SDS011;47353;51.614;5.530;2023-05-14T09:12:50;13.82;;;10.00;;
59788;SDS011;47353;51.614;5.530;2023-05-14T09:15:16;12.93;;;9.68;;
59788;SDS011;47353;51.614;5.530;2023-05-14T09:17:42;10.70;;;8.90;;
59788;SDS011;47353;51.614;5.530;2023-05-14T09:20:08;11.13;;;8.05;;
59788;SDS011;47353;51.614;5.530;2023-05-14T09:22:36;10.75;;;8.80;;
59788;SDS011;47353;51.614;5.530;2023-05-14T09:25:09;8.90;;;8.00;;
59788;SDS011;47353;51.614;5.530;2023-05-14T09:27:36;9.32;;;8.35;;
59788;SDS011;47353;51.614;5.530;2023-05-14T09:30:11;9.45;;;8.32;;
59788;SDS011;47353;51.614;5.530;2023-05-14T09:32:38;10.63;;;8.65;;
59788;SDS011;47353;51.614;5.530;2023-05-14T09:35:08;9.95;;;7.68;;
59788;SDS011;47353;51.614;5.530;2023-05-14T09:37:40;9.57;;;7.97;;
59788;SDS011;47353;51.614;5.530;2023-05-14T09:40:07;10.60;;;8.10;;
59788;SDS011;47353;51.614;5.530;2023-05-14T09:42:34;9.85;;;8.05;;
59788;SDS011;47353;51.614;5.530;2023-05-14T09:44:59;11.32;;;7.43;;
59788;SDS011;47353;51.614;5.530;2023-05-14T09:47:25;11.25;;;7.85;;
59788;SDS011;47353;51.614;5.530;2023-05-14T09:49:51;8.77;;;7.20;;
59788;SDS011;47353;51.614;5.530;2023-05-14T09:52:20;8.68;;;7.40;;
59788;SDS011;47353;51.614;5.530;2023-05-14T09:54:48;9.23;;;7.32;;
59788;SDS011;47353;51.614;5.530;2023-05-14T09:57:15;8.00;;;6.97;;
59788;SDS011;47353;51.614;5.530;2023-05-14T09:59:41;10.30;;;6.60;;
59788;SDS011;47353;51.614;5.530;2023-05-14T10:02:06;8.18;;;6.50;;
59788;SDS011;47353;51.614;5.530;2023-05-14T10:04:42;8.00;;;6.35;;
59788;SDS011;47353;51.614;5.530;2023-05-14T10:07:08;8.95;;;6.05;;
59788;SDS011;47353;51.614;5.530;2023-05-14T10:09:34;9.05;;;6.40;;
59788;SDS011;47353;51.614;5.530;2023-05-14T10:12:05;7.50;;;6.03;;
59788;SDS011;47353;51.614;5.530;2023-05-14T10:14:37;8.30;;;6.63;;
59788;SDS011;47353;51.614;5.530;2023-05-14T10:17:05;18.48;;;9.00;;
59788;SDS011;47353;51.614;5.530;2023-05-14T10:19:32;13.20;;;7.20;;
59788;SDS011;47353;51.614;5.530;2023-05-14T10:22:02;8.93;;;5.85;;
59788;SDS011;47353;51.614;5.530;2023-05-14T10:24:31;6.97;;;5.80;;
59788;SDS011;47353;51.614;5.530;2023-05-14T10:26:57;8.13;;;5.57;;
59788;SDS011;47353;51.614;5.530;2023-05-14T10:29:32;7.68;;;5.82;;
59788;SDS011;47353;51.614;5.530;2023-05-14T10:32:00;8.82;;;6.20;;
59788;SDS011;47353;51.614;5.530;2023-05-14T10:34:36;8.60;;;5.57;;
59788;SDS011;47353;51.614;5.530;2023-05-14T10:37:06;7.57;;;5.47;;
59788;SDS011;47353;51.614;5.530;2023-05-14T10:39:40;7.00;;;5.47;;
59788;SDS011;47353;51.614;5.530;2023-05-14T10:42:07;8.55;;;6.20;;
59788;SDS011;47353;51.614;5.530;2023-05-14T10:44:34;8.63;;;6.03;;
59788;SDS011;47353;51.614;5.530;2023-05-14T10:47:00;9.10;;;5.90;;
59788;SDS011;47353;51.614;5.530;2023-05-14T10:49:26;7.90;;;5.55;;
59788;SDS011;47353;51.614;5.530;2023-05-14T10:51:52;6.63;;;5.82;;
59788;SDS011;47353;51.614;5.530;2023-05-14T10:54:18;6.07;;;5.30;;
59788;SDS011;47353;51.614;5.530;2023-05-14T10:56:46;7.47;;;6.05;;
59788;SDS011;47353;51.614;5.530;2023-05-14T10:59:11;7.97;;;5.78;;
59788;SDS011;47353;51.614;5.530;2023-05-14T11:01:40;9.40;;;5.18;;
59788;SDS011;47353;51.614;5.530;2023-05-14T11:04:06;6.38;;;5.20;;
59788;SDS011;47353;51.614;5.530;2023-05-14T11:06:33;6.25;;;5.60;;
59788;SDS011;47353;51.614;5.530;2023-05-14T11:09:01;7.47;;;5.35;;
59788;SDS011;47353;51.614;5.530;2023-05-14T11:11:27;6.88;;;5.50;;
59788;SDS011;47353;51.614;5.530;2023-05-14T11:13:53;7.57;;;5.60;;
59788;SDS011;47353;51.614;5.530;2023-05-14T11:16:20;11.13;;;5.30;;
59788;SDS011;47353;51.614;5.530;2023-05-14T11:18:47;7.63;;;5.22;;
59788;SDS011;47353;51.614;5.530;2023-05-14T11:21:17;12.63;;;5.25;;
59788;SDS011;47353;51.614;5.530;2023-05-14T11:23:45;7.65;;;4.75;;
59788;SDS011;47353;51.614;5.530;2023-05-14T11:26:10;5.97;;;4.68;;
59788;SDS011;47353;51.614;5.530;2023-05-14T11:28:36;6.43;;;4.70;;
59788;SDS011;47353;51.614;5.530;2023-05-14T11:31:02;5.68;;;4.75;;
59788;SDS011;47353;51.614;5.530;2023-05-14T11:33:29;7.88;;;4.93;;
59788;SDS011;47353;51.614;5.530;2023-05-14T11:35:55;7.05;;;4.30;;
59788;SDS011;47353;51.614;5.530;2023-05-14T11:38:21;5.60;;;4.45;;
59788;SDS011;47353;51.614;5.530;2023-05-14T11:40:56;8.07;;;4.70;;
59788;SDS011;47353;51.614;5.530;2023-05-14T11:43:23;7.45;;;4.35;;
59788;SDS011;47353;51.614;5.530;2023-05-14T11:45:52;6.47;;;3.95;;
59788;SDS011;47353;51.614;5.530;2023-05-14T11:48:18;7.13;;;4.28;;
59788;SDS011;47353;51.614;5.530;2023-05-14T11:50:48;6.13;;;4.32;;
59788;SDS011;47353;51.614;5.530;2023-05-14T11:55:49;7.30;;;4.23;;
59788;SDS011;47353;51.614;5.530;2023-05-14T11:58:15;5.20;;;4.40;;
59788;SDS011;47353;51.614;5.530;2023-05-14T12:00:48;5.47;;;3.95;;
59788;SDS011;47353;51.614;5.530;2023-05-14T12:03:14;4.30;;;3.90;;
59788;SDS011;47353;51.614;5.530;2023-05-14T12:05:40;7.68;;;3.83;;
59788;SDS011;47353;51.614;5.530;2023-05-14T12:08:21;5.72;;;3.90;;
59788;SDS011;47353;51.614;5.530;2023-05-14T12:10:49;7.07;;;3.75;;
59788;SDS011;47353;51.614;5.530;2023-05-14T12:13:16;5.43;;;3.50;;
59788;SDS011;47353;51.614;5.530;2023-05-14T12:15:46;5.30;;;3.40;;
59788;SDS011;47353;51.614;5.530;2023-05-14T12:18:12;6.85;;;3.40;;
59788;SDS011;47353;51.614;5.530;2023-05-14T12:20:38;4.85;;;3.42;;
59788;SDS011;47353;51.614;5.530;2023-05-14T12:23:08;5.10;;;3.20;;
59788;SDS011;47353;51.614;5.530;2023-05-14T12:25:34;4.93;;;3.42;;
59788;SDS011;47353;51.614;5.530;2023-05-14T12:28:02;3.95;;;3.35;;
59788;SDS011;47353;51.614;5.530;2023-05-14T12:30:38;5.70;;;3.35;;
59788;SDS011;47353;51.614;5.530;2023-05-14T12:33:03;3.92;;;3.40;;
59788;SDS011;47353;51.614;5.530;2023-05-14T12:35:28;5.70;;;3.40;;
59788;SDS011;47353;51.614;5.530;2023-05-14T12:37:54;6.10;;;2.92;;
59788;SDS011;47353;51.614;5.530;2023-05-14T12:40:19;3.78;;;3.10;;
59788;SDS011;47353;51.614;5.530;2023-05-14T12:42:45;6.03;;;3.10;;
59788;SDS011;47353;51.614;5.530;2023-05-14T12:45:10;5.47;;;3.80;;
59788;SDS011;47353;51.614;5.530;2023-05-14T12:47:35;6.50;;;3.53;;
59788;SDS011;47353;51.614;5.530;2023-05-14T12:50:01;7.78;;;3.00;;
59788;SDS011;47353;51.614;5.530;2023-05-14T12:52:27;4.70;;;2.83;;
59788;SDS011;47353;51.614;5.530;2023-05-14T12:54:53;5.45;;;2.92;;
59788;SDS011;47353;51.614;5.530;2023-05-14T12:57:18;3.30;;;2.75;;
59788;SDS011;47353;51.614;5.530;2023-05-14T12:59:44;4.25;;;2.90;;
59788;SDS011;47353;51.614;5.530;2023-05-14T13:02:09;4.63;;;3.10;;
59788;SDS011;47353;51.614;5.530;2023-05-14T13:04:35;4.45;;;3.00;;
59788;SDS011;47353;51.614;5.530;2023-05-14T13:07:01;4.82;;;3.28;;
59788;SDS011;47353;51.614;5.530;2023-05-14T13:09:27;3.40;;;3.10;;
59788;SDS011;47353;51.614;5.530;2023-05-14T13:11:52;3.15;;;2.72;;
59788;SDS011;47353;51.614;5.530;2023-05-14T13:14:18;3.70;;;2.80;;
59788;SDS011;47353;51.614;5.530;2023-05-14T13:16:43;4.95;;;2.40;;
59788;SDS011;47353;51.614;5.530;2023-05-14T13:19:08;4.10;;;3.00;;
59788;SDS011;47353;51.614;5.530;2023-05-14T13:21:34;3.97;;;2.88;;
59788;SDS011;47353;51.614;5.530;2023-05-14T13:23:59;5.43;;;3.20;;
59788;SDS011;47353;51.614;5.530;2023-05-14T13:26:25;5.90;;;3.10;;
59788;SDS011;47353;51.614;5.530;2023-05-14T13:28:52;5.65;;;2.90;;
59788;SDS011;47353;51.614;5.530;2023-05-14T13:31:17;5.88;;;3.00;;
59788;SDS011;47353;51.614;5.530;2023-05-14T13:33:43;5.80;;;5.30;;
59788;SDS011;47353;51.614;5.530;2023-05-14T13:36:09;4.03;;;3.00;;
59788;SDS011;47353;51.614;5.530;2023-05-14T13:38:36;5.05;;;3.00;;
59788;SDS011;47353;51.614;5.530;2023-05-14T13:41:02;6.32;;;3.10;;
59788;SDS011;47353;51.614;5.530;2023-05-14T13:43:28;3.85;;;2.95;;
59788;SDS011;47353;51.614;5.530;2023-05-14T13:45:54;4.30;;;3.50;;
59788;SDS011;47353;51.614;5.530;2023-05-14T13:48:20;4.32;;;3.10;;
59788;SDS011;47353;51.614;5.530;2023-05-14T13:50:45;5.95;;;3.10;;
59788;SDS011;47353;51.614;5.530;2023-05-14T13:53:11;6.72;;;2.95;;
59788;SDS011;47353;51.614;5.530;2023-05-14T13:55:36;4.07;;;2.88;;
59788;SDS011;47353;51.614;5.530;2023-05-14T13:58:02;7.25;;;3.15;;
59788;SDS011;47353;51.614;5.530;2023-05-14T14:00:27;5.53;;;2.90;;
59788;SDS011;47353;51.614;5.530;2023-05-14T14:02:52;5.22;;;2.83;;
59788;SDS011;47353;51.614;5.530;2023-05-14T14:05:18;3.53;;;2.72;;
59788;SDS011;47353;51.614;5.530;2023-05-14T14:07:43;7.10;;;3.30;;
59788;SDS011;47353;51.614;5.530;2023-05-14T14:10:09;7.78;;;2.92;;
59788;SDS011;47353;51.614;5.530;2023-05-14T14:12:34;7.03;;;3.00;;
59788;SDS011;47353;51.614;5.530;2023-05-14T14:15:00;7.65;;;3.30;;
59788;SDS011;47353;51.614;5.530;2023-05-14T14:17:27;6.97;;;3.47;;
59788;SDS011;47353;51.614;5.530;2023-05-14T14:19:52;5.28;;;3.40;;
59788;SDS011;47353;51.614;5.530;2023-05-14T14:22:18;5.75;;;3.60;;
59788;SDS011;47353;51.614;5.530;2023-05-14T14:24:43;5.07;;;3.20;;
59788;SDS011;47353;51.614;5.530;2023-05-14T14:27:09;3.78;;;2.78;;
59788;SDS011;47353;51.614;5.530;2023-05-14T14:29:35;8.35;;;3.58;;
59788;SDS011;47353;51.614;5.530;2023-05-14T14:32:01;6.88;;;3.55;;
59788;SDS011;47353;51.614;5.530;2023-05-14T14:34:26;6.35;;;3.40;;
59788;SDS011;47353;51.614;5.530;2023-05-14T14:36:52;4.43;;;3.30;;